Aviation Digital Data Service (ADDS)

Output produced by METARs form (2042 UTC 13 August 2020)
found at http://aviationweather.gov/metar/data/
 
KOEO 132035Z AUTO 17011G16KT 10SM BKN033 30/22 A3001 RMK AO2 T03010224